KLBL/LBL METAR and TAF weather

Enter ICAO airport designator
Station Type Date Time Source
KLBL METAR 2021/05/10 23:56 UTC NOAA

KLBL 102356Z AUTO 16004KT 10SM OVC020 10/07 A3011 RMK AO2 SLP197 T01000067 10100 20078 55003


Station Type Date Time Source
KLBL Decoded METAR 2021/05/10 23:56 UTC NOAA

Liberal, Liberal Municipal Airport, KS, United States (KLBL) 37-03N 100-58W
May 10, 2021 - 07:56 PM EDT / 2021.05.10 2356 UTC
Wind: from the SSE (160 degrees) at 5 MPH (4 KT):0
Visibility: 10 mile(s):0
Sky conditions: overcast
Temperature: 50.0 F (10.0 C)
Dew Point: 44.1 F (6.7 C)
Relative Humidity: 79%
Pressure (altimeter): 30.11 in. Hg (1019 hPa)
Pressure tendency: 0.01 inches (0.3 hPa) lower than three hours ago
ob: KLBL 102356Z AUTO 16004KT 10SM OVC020 10/07 A3011 RMK AO2 SLP197 T01000067 10100 20078 55003
cycle: 0

Station Type Date Time Source
KLBL TAF 2021/05/10 18:21 UTC NOAA

TAF KLBL 101720Z 1018/1118 10010KT P6SM OVC015
FM110000 05007KT P6SM OVC020
FM110600 07008KT P6SM OVC015
FM110900 06009KT 4SM BR VCSH OVC005
FM111700 07010KT P6SM OVC009

Example: see airport list